sensor_id;sensor_type;location;lat;lon;timestamp;pressure;altitude;pressure_sealevel;temperature;humidity
48892;BME280;50130;52.150;5.236;2023-04-04T00:01:31;102869.0;;;1.97;84.08
48892;BME280;50130;52.150;5.236;2023-04-04T00:03:07;102874.0;;;1.96;84.01
48892;BME280;50130;52.150;5.236;2023-04-04T00:04:43;102868.0;;;1.92;84.06
48892;BME280;50130;52.150;5.236;2023-04-04T00:07:56;102864.00000000001;;;2.02;83.74
48892;BME280;50130;52.150;5.236;2023-04-04T00:09:32;102865.00000000001;;;2.12;83.24
48892;BME280;50130;52.150;5.236;2023-04-04T00:11:08;102861.99999999999;;;2.07;83.25
48892;BME280;50130;52.150;5.236;2023-04-04T00:14:21;102861.99999999999;;;2.12;83.16
48892;BME280;50130;52.150;5.236;2023-04-04T00:15:57;102853.0;;;2.07;83.46
48892;BME280;50130;52.150;5.236;2023-04-04T00:20:45;102853.0;;;2.04;82.92
48892;BME280;50130;52.150;5.236;2023-04-04T00:22:21;102855.0;;;1.87;83.25
48892;BME280;50130;52.150;5.236;2023-04-04T00:23:57;102854.0;;;1.87;83.33
48892;BME280;50130;52.150;5.236;2023-04-04T00:25:33;102849.0;;;1.96;83.14
48892;BME280;50130;52.150;5.236;2023-04-04T00:28:46;102839.00000000001;;;1.89;82.93
48892;BME280;50130;52.150;5.236;2023-04-04T00:30:22;102832.0;;;2.02;82.31
48892;BME280;50130;52.150;5.236;2023-04-04T00:31:58;102832.0;;;1.86;82.6
48892;BME280;50130;52.150;5.236;2023-04-04T00:35:11;102827.0;;;1.84;82.82
48892;BME280;50130;52.150;5.236;2023-04-04T00:38:23;102830.0;;;1.73;82.66
48892;BME280;50130;52.150;5.236;2023-04-04T00:41:35;102827.0;;;1.78;82.49
48892;BME280;50130;52.150;5.236;2023-04-04T00:43:11;102832.0;;;1.76;82.22
48892;BME280;50130;52.150;5.236;2023-04-04T00:44:50;102831.0;;;1.73;82.03
48892;BME280;50130;52.150;5.236;2023-04-04T00:46:27;102833.0;;;1.68;82.36
48892;BME280;50130;52.150;5.236;2023-04-04T00:49:39;102834.99999999999;;;1.69;82.28
48892;BME280;50130;52.150;5.236;2023-04-04T00:51:15;102840.00000000001;;;1.7;82.23
48892;BME280;50130;52.150;5.236;2023-04-04T00:52:51;102842.0;;;1.72;81.66
48892;BME280;50130;52.150;5.236;2023-04-04T00:56:08;102840.00000000001;;;1.56;82.18
48892;BME280;50130;52.150;5.236;2023-04-04T00:57:44;102833.0;;;1.46;82.63
48892;BME280;50130;52.150;5.236;2023-04-04T00:59:21;102832.0;;;1.53;83.0
48892;BME280;50130;52.150;5.236;2023-04-04T01:02:35;102827.0;;;1.55;83.87
48892;BME280;50130;52.150;5.236;2023-04-04T01:04:11;102827.0;;;1.61;83.2
48892;BME280;50130;52.150;5.236;2023-04-04T01:05:47;102833.0;;;1.57;83.63
48892;BME280;50130;52.150;5.236;2023-04-04T01:07:24;102829.0;;;1.58;83.27
48892;BME280;50130;52.150;5.236;2023-04-04T01:10:38;102838.00000000001;;;1.42;83.0
48892;BME280;50130;52.150;5.236;2023-04-04T01:12:15;102833.0;;;1.43;82.9
48892;BME280;50130;52.150;5.236;2023-04-04T01:13:51;102833.99999999999;;;1.26;82.84
48892;BME280;50130;52.150;5.236;2023-04-04T01:17:04;102831.0;;;1.21;83.15
48892;BME280;50130;52.150;5.236;2023-04-04T01:18:41;102826.0;;;1.19;83.73
48892;BME280;50130;52.150;5.236;2023-04-04T01:20:23;102825.0;;;1.25;83.58
48892;BME280;50130;52.150;5.236;2023-04-04T01:22:01;102825.0;;;1.3;83.69
48892;BME280;50130;52.150;5.236;2023-04-04T01:25:34;102831.0;;;1.36;83.53
48892;BME280;50130;52.150;5.236;2023-04-04T01:27:11;102825.0;;;1.27;83.11
48892;BME280;50130;52.150;5.236;2023-04-04T01:28:47;102831.0;;;1.16;83.23
48892;BME280;50130;52.150;5.236;2023-04-04T01:30:24;102826.0;;;1.06;83.74
48892;BME280;50130;52.150;5.236;2023-04-04T01:33:54;102828.0;;;1.16;83.62
48892;BME280;50130;52.150;5.236;2023-04-04T01:35:42;102830.0;;;1.1;84.1
48892;BME280;50130;52.150;5.236;2023-04-04T01:37:25;102829.0;;;1.13;84.11
48892;BME280;50130;52.150;5.236;2023-04-04T01:39:09;102827.0;;;1.12;84.16
48892;BME280;50130;52.150;5.236;2023-04-04T01:40:55;102833.0;;;1.11;83.95
48892;BME280;50130;52.150;5.236;2023-04-04T01:44:15;102836.99999999999;;;1.11;83.62
48892;BME280;50130;52.150;5.236;2023-04-04T01:45:52;102833.99999999999;;;1.06;83.85
48892;BME280;50130;52.150;5.236;2023-04-04T01:47:28;102833.0;;;0.91;84.04
48892;BME280;50130;52.150;5.236;2023-04-04T01:50:39;102833.0;;;0.91;84.05
48892;BME280;50130;52.150;5.236;2023-04-04T01:52:15;102836.99999999999;;;1.0;83.73
48892;BME280;50130;52.150;5.236;2023-04-04T01:53:51;102831.0;;;1.01;83.72
48892;BME280;50130;52.150;5.236;2023-04-04T01:55:28;102833.99999999999;;;1.11;83.59
48892;BME280;50130;52.150;5.236;2023-04-04T01:58:40;102828.0;;;1.08;83.76
48892;BME280;50130;52.150;5.236;2023-04-04T02:00:16;102823.0;;;1.06;83.64
48892;BME280;50130;52.150;5.236;2023-04-04T02:01:52;102821.0;;;1.08;83.91
48892;BME280;50130;52.150;5.236;2023-04-04T02:05:05;102820.0;;;1.25;83.38
48892;BME280;50130;52.150;5.236;2023-04-04T02:06:42;102822.0;;;1.13;83.51
48892;BME280;50130;52.150;5.236;2023-04-04T02:08:18;102825.0;;;1.04;84.03
48892;BME280;50130;52.150;5.236;2023-04-04T02:11:30;102830.0;;;0.86;83.84
48892;BME280;50130;52.150;5.236;2023-04-04T02:13:06;102833.0;;;0.98;83.53
48892;BME280;50130;52.150;5.236;2023-04-04T02:14:42;102830.0;;;0.85;84.15
48892;BME280;50130;52.150;5.236;2023-04-04T02:17:55;102833.99999999999;;;0.98;84.01
48892;BME280;50130;52.150;5.236;2023-04-04T02:19:31;102832.0;;;0.99;84.16
48892;BME280;50130;52.150;5.236;2023-04-04T02:21:07;102836.99999999999;;;1.0;84.25
48892;BME280;50130;52.150;5.236;2023-04-04T02:22:49;102841.00000000001;;;0.92;84.51
48892;BME280;50130;52.150;5.236;2023-04-04T02:26:01;102840.00000000001;;;0.95;84.69
48892;BME280;50130;52.150;5.236;2023-04-04T02:27:37;102836.99999999999;;;0.82;85.36
48892;BME280;50130;52.150;5.236;2023-04-04T02:29:14;102834.99999999999;;;0.86;85.6
48892;BME280;50130;52.150;5.236;2023-04-04T02:32:26;102840.00000000001;;;0.97;85.5
48892;BME280;50130;52.150;5.236;2023-04-04T02:34:02;102838.00000000001;;;0.88;85.76
48892;BME280;50130;52.150;5.236;2023-04-04T02:35:39;102833.0;;;0.89;85.64
48892;BME280;50130;52.150;5.236;2023-04-04T02:38:51;102830.0;;;1.02;85.37
48892;BME280;50130;52.150;5.236;2023-04-04T02:40:27;102830.0;;;0.94;85.09
48892;BME280;50130;52.150;5.236;2023-04-04T02:42:03;102828.0;;;1.0;85.04
48892;BME280;50130;52.150;5.236;2023-04-04T02:43:39;102824.0;;;0.94;85.09
48892;BME280;50130;52.150;5.236;2023-04-04T02:46:52;102820.0;;;1.01;84.89
48892;BME280;50130;52.150;5.236;2023-04-04T02:48:28;102816.00000000001;;;1.03;84.9
48892;BME280;50130;52.150;5.236;2023-04-04T02:50:05;102811.99999999999;;;1.03;84.65
48892;BME280;50130;52.150;5.236;2023-04-04T02:53:17;102808.99999999999;;;1.01;84.48
48892;BME280;50130;52.150;5.236;2023-04-04T02:54:53;102808.0;;;0.98;84.45
48892;BME280;50130;52.150;5.236;2023-04-04T02:56:29;102805.0;;;1.13;84.09
48892;BME280;50130;52.150;5.236;2023-04-04T02:59:42;102802.0;;;1.2;83.84
48892;BME280;50130;52.150;5.236;2023-04-04T03:01:18;102801.0;;;0.9;84.37
48892;BME280;50130;52.150;5.236;2023-04-04T03:02:54;102799.0;;;0.73;85.41
48892;BME280;50130;52.150;5.236;2023-04-04T03:04:31;102795.0;;;0.79;85.55
48892;BME280;50130;52.150;5.236;2023-04-04T03:07:43;102793.0;;;0.79;85.8
48892;BME280;50130;52.150;5.236;2023-04-04T03:09:19;102797.0;;;0.7;86.01
48892;BME280;50130;52.150;5.236;2023-04-04T03:10:56;102802.0;;;0.65;86.39
48892;BME280;50130;52.150;5.236;2023-04-04T03:14:08;102803.0;;;0.66;86.53
48892;BME280;50130;52.150;5.236;2023-04-04T03:15:44;102806.0;;;0.48;87.24
48892;BME280;50130;52.150;5.236;2023-04-04T03:17:20;102803.0;;;0.45;87.81
48892;BME280;50130;52.150;5.236;2023-04-04T03:20:33;102806.0;;;0.5;87.95
48892;BME280;50130;52.150;5.236;2023-04-04T03:22:09;102807.0;;;0.56;87.76
48892;BME280;50130;52.150;5.236;2023-04-04T03:23:45;102804.0;;;0.66;87.22
48892;BME280;50130;52.150;5.236;2023-04-04T03:26:58;102805.0;;;0.57;87.18
48892;BME280;50130;52.150;5.236;2023-04-04T03:28:34;102801.0;;;0.57;87.0
48892;BME280;50130;52.150;5.236;2023-04-04T03:30:11;102803.0;;;0.63;87.02
48892;BME280;50130;52.150;5.236;2023-04-04T03:31:47;102799.0;;;0.69;86.65
48892;BME280;50130;52.150;5.236;2023-04-04T03:35:00;102800.0;;;0.79;86.17
48892;BME280;50130;52.150;5.236;2023-04-04T03:36:36;102800.0;;;0.8;86.12
48892;BME280;50130;52.150;5.236;2023-04-04T03:38:12;102792.0;;;0.77;86.25
48892;BME280;50130;52.150;5.236;2023-04-04T03:41:24;102795.0;;;0.78;86.16
48892;BME280;50130;52.150;5.236;2023-04-04T03:43:01;102789.00000000001;;;0.78;86.11
48892;BME280;50130;52.150;5.236;2023-04-04T03:44:38;102793.0;;;0.8;85.96
48892;BME280;50130;52.150;5.236;2023-04-04T03:47:51;102794.0;;;0.77;86.24
48892;BME280;50130;52.150;5.236;2023-04-04T03:49:27;102798.0;;;0.64;86.82
48892;BME280;50130;52.150;5.236;2023-04-04T03:51:03;102792.0;;;0.54;87.74
48892;BME280;50130;52.150;5.236;2023-04-04T03:52:39;102795.0;;;0.67;87.41
48892;BME280;50130;52.150;5.236;2023-04-04T03:55:54;102797.0;;;0.68;87.01
48892;BME280;50130;52.150;5.236;2023-04-04T03:57:31;102799.0;;;0.58;87.71
48892;BME280;50130;52.150;5.236;2023-04-04T03:59:07;102797.0;;;0.58;87.99
48892;BME280;50130;52.150;5.236;2023-04-04T04:02:19;102792.0;;;0.56;88.01
48892;BME280;50130;52.150;5.236;2023-04-04T04:03:55;102793.0;;;0.5;88.37
48892;BME280;50130;52.150;5.236;2023-04-04T04:05:31;102795.0;;;0.52;88.23
48892;BME280;50130;52.150;5.236;2023-04-04T04:08:44;102802.0;;;0.58;88.0
48892;BME280;50130;52.150;5.236;2023-04-04T04:10:21;102798.0;;;0.6;87.86
48892;BME280;50130;52.150;5.236;2023-04-04T04:11:57;102802.0;;;0.53;87.42
48892;BME280;50130;52.150;5.236;2023-04-04T04:13:33;102802.0;;;0.62;87.5
48892;BME280;50130;52.150;5.236;2023-04-04T04:16:46;102806.0;;;0.6;87.46
48892;BME280;50130;52.150;5.236;2023-04-04T04:18:22;102804.0;;;0.52;87.84
48892;BME280;50130;52.150;5.236;2023-04-04T04:19:58;102805.0;;;0.56;87.9
48892;BME280;50130;52.150;5.236;2023-04-04T04:23:11;102805.0;;;0.58;87.77
48892;BME280;50130;52.150;5.236;2023-04-04T04:24:47;102801.0;;;0.59;87.47
48892;BME280;50130;52.150;5.236;2023-04-04T04:26:23;102800.0;;;0.5;87.42
48892;BME280;50130;52.150;5.236;2023-04-04T04:29:36;102802.0;;;0.43;87.56
48892;BME280;50130;52.150;5.236;2023-04-04T04:31:13;102801.0;;;0.37;88.2
48892;BME280;50130;52.150;5.236;2023-04-04T04:32:49;102800.0;;;0.35;88.36
48892;BME280;50130;52.150;5.236;2023-04-04T04:36:02;102802.0;;;0.41;88.25
48892;BME280;50130;52.150;5.236;2023-04-04T04:37:39;102801.0;;;0.56;87.71
48892;BME280;50130;52.150;5.236;2023-04-04T04:39:15;102797.0;;;0.39;88.16
48892;BME280;50130;52.150;5.236;2023-04-04T04:40:51;102795.0;;;0.26;88.23
48892;BME280;50130;52.150;5.236;2023-04-04T04:44:04;102796.0;;;0.24;87.89
48892;BME280;50130;52.150;5.236;2023-04-04T04:45:40;102800.0;;;0.18;88.01
48892;BME280;50130;52.150;5.236;2023-04-04T04:47:16;102803.0;;;0.27;87.91
48892;BME280;50130;52.150;5.236;2023-04-04T04:50:28;102800.0;;;0.13;88.48
48892;BME280;50130;52.150;5.236;2023-04-04T04:52:04;102803.0;;;0.09;88.77
48892;BME280;50130;52.150;5.236;2023-04-04T04:53:41;102808.0;;;0.24;88.46
48892;BME280;50130;52.150;5.236;2023-04-04T04:56:53;102808.99999999999;;;0.29;88.36
48892;BME280;50130;52.150;5.236;2023-04-04T04:58:29;102816.00000000001;;;0.24;88.79
48892;BME280;50130;52.150;5.236;2023-04-04T05:00:06;102816.00000000001;;;0.3;88.97
48892;BME280;50130;52.150;5.236;2023-04-04T05:01:42;102818.0;;;0.29;88.48
48892;BME280;50130;52.150;5.236;2023-04-04T05:04:54;102821.0;;;0.22;88.27
48892;BME280;50130;52.150;5.236;2023-04-04T05:06:31;102814.00000000001;;;0.1;88.77
48892;BME280;50130;52.150;5.236;2023-04-04T05:08:07;102816.00000000001;;;0.17;88.91
48892;BME280;50130;52.150;5.236;2023-04-04T05:11:19;102815.00000000001;;;0.23;88.46
48892;BME280;50130;52.150;5.236;2023-04-04T05:12:55;102811.99999999999;;;0.15;88.5
48892;BME280;50130;52.150;5.236;2023-04-04T05:14:32;102806.0;;;0.0;89.13
48892;BME280;50130;52.150;5.236;2023-04-04T05:17:45;102808.0;;;-0.08;89.06
48892;BME280;50130;52.150;5.236;2023-04-04T05:19:21;102807.0;;;-0.08;89.19
48892;BME280;50130;52.150;5.236;2023-04-04T05:20:57;102808.99999999999;;;-0.02;89.2
48892;BME280;50130;52.150;5.236;2023-04-04T05:22:33;102808.0;;;0.0;89.06
48892;BME280;50130;52.150;5.236;2023-04-04T05:25:47;102815.00000000001;;;-0.02;89.17
48892;BME280;50130;52.150;5.236;2023-04-04T05:27:23;102817.0;;;-0.09;89.69
48892;BME280;50130;52.150;5.236;2023-04-04T05:28:59;102814.00000000001;;;-0.15;89.59
48892;BME280;50130;52.150;5.236;2023-04-04T05:32:12;102814.00000000001;;;-0.12;89.66
48892;BME280;50130;52.150;5.236;2023-04-04T05:33:48;102816.00000000001;;;-0.15;89.96
48892;BME280;50130;52.150;5.236;2023-04-04T05:35:24;102815.00000000001;;;-0.17;90.06
48892;BME280;50130;52.150;5.236;2023-04-04T05:38:36;102817.0;;;-0.16;90.16
48892;BME280;50130;52.150;5.236;2023-04-04T05:40:13;102817.0;;;-0.13;90.06
48892;BME280;50130;52.150;5.236;2023-04-04T05:41:49;102815.00000000001;;;-0.06;89.87
48892;BME280;50130;52.150;5.236;2023-04-04T05:45:00;102819.0;;;0.17;89.1
48892;BME280;50130;52.150;5.236;2023-04-04T05:46:37;102818.0;;;0.24;88.66
48892;BME280;50130;52.150;5.236;2023-04-04T05:48:14;102824.0;;;0.29;88.52
48892;BME280;50130;52.150;5.236;2023-04-04T05:49:49;102820.0;;;0.25;88.57
48892;BME280;50130;52.150;5.236;2023-04-04T05:53:02;102821.0;;;0.26;88.43
48892;BME280;50130;52.150;5.236;2023-04-04T05:54:38;102818.0;;;0.11;89.17
48892;BME280;50130;52.150;5.236;2023-04-04T05:56:14;102817.0;;;0.2;89.01
48892;BME280;50130;52.150;5.236;2023-04-04T05:59:26;102819.0;;;0.27;88.71
48892;BME280;50130;52.150;5.236;2023-04-04T06:01:05;102818.0;;;0.09;88.81
48892;BME280;50130;52.150;5.236;2023-04-04T06:02:42;102819.0;;;0.13;88.81
48892;BME280;50130;52.150;5.236;2023-04-04T06:05:54;102820.0;;;0.02;89.0
48892;BME280;50130;52.150;5.236;2023-04-04T06:07:30;102819.0;;;-0.05;89.38
48892;BME280;50130;52.150;5.236;2023-04-04T06:09:06;102820.0;;;-0.03;89.56
48892;BME280;50130;52.150;5.236;2023-04-04T06:10:42;102819.0;;;0.01;89.48
48892;BME280;50130;52.150;5.236;2023-04-04T06:13:55;102817.0;;;0.04;89.65
48892;BME280;50130;52.150;5.236;2023-04-04T06:15:31;102824.0;;;0.04;89.97
48892;BME280;50130;52.150;5.236;2023-04-04T06:17:07;102818.0;;;0.08;90.22
48892;BME280;50130;52.150;5.236;2023-04-04T06:20:20;102820.0;;;0.02;90.61
48892;BME280;50130;52.150;5.236;2023-04-04T06:21:57;102809.99999999999;;;0.04;90.96
48892;BME280;50130;52.150;5.236;2023-04-04T06:23:33;102807.0;;;0.09;90.87
48892;BME280;50130;52.150;5.236;2023-04-04T06:26:45;102811.99999999999;;;0.13;90.66
48892;BME280;50130;52.150;5.236;2023-04-04T06:28:21;102808.0;;;0.17;90.67
48892;BME280;50130;52.150;5.236;2023-04-04T06:29:57;102805.0;;;0.25;90.54
48892;BME280;50130;52.150;5.236;2023-04-04T06:33:09;102802.0;;;0.34;90.25
48892;BME280;50130;52.150;5.236;2023-04-04T06:34:46;102808.0;;;0.37;90.46
48892;BME280;50130;52.150;5.236;2023-04-04T06:36:22;102816.00000000001;;;0.69;89.52
48892;BME280;50130;52.150;5.236;2023-04-04T06:37:58;102817.0;;;0.85;88.93
48892;BME280;50130;52.150;5.236;2023-04-04T06:41:10;102818.0;;;0.98;88.65
48892;BME280;50130;52.150;5.236;2023-04-04T06:42:47;102827.0;;;1.15;88.02
48892;BME280;50130;52.150;5.236;2023-04-04T06:44:23;102832.0;;;1.2;88.18
48892;BME280;50130;52.150;5.236;2023-04-04T06:47:36;102838.00000000001;;;1.18;88.98
48892;BME280;50130;52.150;5.236;2023-04-04T06:49:12;102833.0;;;1.29;89.01
48892;BME280;50130;52.150;5.236;2023-04-04T06:50:48;102833.0;;;1.29;89.1
48892;BME280;50130;52.150;5.236;2023-04-04T06:54:01;102831.0;;;1.42;88.79
48892;BME280;50130;52.150;5.236;2023-04-04T06:55:37;102838.00000000001;;;1.39;89.02
48892;BME280;50130;52.150;5.236;2023-04-04T06:57:13;102843.0;;;1.3;90.19
48892;BME280;50130;52.150;5.236;2023-04-04T06:58:49;102834.99999999999;;;1.4;90.52
48892;BME280;50130;52.150;5.236;2023-04-04T07:02:01;102832.0;;;1.46;90.71
48892;BME280;50130;52.150;5.236;2023-04-04T07:03:37;102832.0;;;1.52;90.68
48892;BME280;50130;52.150;5.236;2023-04-04T07:05:13;102827.0;;;1.63;90.57
48892;BME280;50130;52.150;5.236;2023-04-04T07:08:26;102827.0;;;1.76;89.64
48892;BME280;50130;52.150;5.236;2023-04-04T07:10:05;102826.0;;;1.89;89.24
48892;BME280;50130;52.150;5.236;2023-04-04T07:11:41;102833.99999999999;;;1.92;89.33
48892;BME280;50130;52.150;5.236;2023-04-04T07:14:53;102833.0;;;2.02;89.03
48892;BME280;50130;52.150;5.236;2023-04-04T07:16:30;102838.00000000001;;;2.1;88.87
48892;BME280;50130;52.150;5.236;2023-04-04T07:18:06;102840.00000000001;;;2.21;88.66
48892;BME280;50130;52.150;5.236;2023-04-04T07:19:42;102834.99999999999;;;2.42;88.17
48892;BME280;50130;52.150;5.236;2023-04-04T07:22:54;102843.0;;;2.56;87.58
48892;BME280;50130;52.150;5.236;2023-04-04T07:24:30;102843.0;;;2.62;87.9
48892;BME280;50130;52.150;5.236;2023-04-04T07:26:06;102845.0;;;2.74;86.5
48892;BME280;50130;52.150;5.236;2023-04-04T07:29:19;102833.99999999999;;;2.87;86.82
48892;BME280;50130;52.150;5.236;2023-04-04T07:30:58;102832.0;;;3.19;85.15
48892;BME280;50130;52.150;5.236;2023-04-04T07:32:34;102833.99999999999;;;3.26;84.26
48892;BME280;50130;52.150;5.236;2023-04-04T07:35:46;102836.99999999999;;;3.42;81.72
48892;BME280;50130;52.150;5.236;2023-04-04T07:38:59;102836.99999999999;;;3.7;79.17
48892;BME280;50130;52.150;5.236;2023-04-04T07:42:11;102842.0;;;3.94;78.36
48892;BME280;50130;52.150;5.236;2023-04-04T07:43:47;102841.00000000001;;;4.07;77.86
48892;BME280;50130;52.150;5.236;2023-04-04T07:45:22;102838.00000000001;;;4.12;77.19
48892;BME280;50130;52.150;5.236;2023-04-04T07:46:58;102838.00000000001;;;4.36;76.89
48892;BME280;50130;52.150;5.236;2023-04-04T07:50:11;102842.0;;;4.38;74.86
48892;BME280;50130;52.150;5.236;2023-04-04T07:51:47;102839.00000000001;;;4.54;75.33
48892;BME280;50130;52.150;5.236;2023-04-04T07:53:23;102838.00000000001;;;4.66;75.17
48892;BME280;50130;52.150;5.236;2023-04-04T07:56:35;102840.00000000001;;;4.88;73.75
48892;BME280;50130;52.150;5.236;2023-04-04T07:58:10;102840.00000000001;;;5.03;72.55
48892;BME280;50130;52.150;5.236;2023-04-04T07:59:46;102834.99999999999;;;5.16;71.67
48892;BME280;50130;52.150;5.236;2023-04-04T08:02:58;102838.00000000001;;;5.37;68.88
48892;BME280;50130;52.150;5.236;2023-04-04T08:04:34;102841.00000000001;;;5.39;66.92
48892;BME280;50130;52.150;5.236;2023-04-04T08:06:11;102831.0;;;5.53;67.28
48892;BME280;50130;52.150;5.236;2023-04-04T08:09:24;102836.99999999999;;;5.68;67.27
48892;BME280;50130;52.150;5.236;2023-04-04T08:11:00;102831.0;;;5.83;65.92
48892;BME280;50130;52.150;5.236;2023-04-04T08:12:37;102828.0;;;5.93;65.3
48892;BME280;50130;52.150;5.236;2023-04-04T08:14:13;102828.0;;;6.16;63.15
48892;BME280;50130;52.150;5.236;2023-04-04T08:17:26;102830.0;;;6.22;63.58
48892;BME280;50130;52.150;5.236;2023-04-04T08:19:02;102828.0;;;6.25;64.19
48892;BME280;50130;52.150;5.236;2023-04-04T08:20:38;102830.0;;;6.29;61.26
48892;BME280;50130;52.150;5.236;2023-04-04T08:23:50;102833.0;;;6.63;60.96
48892;BME280;50130;52.150;5.236;2023-04-04T08:25:26;102832.0;;;6.71;60.21
48892;BME280;50130;52.150;5.236;2023-04-04T08:27:02;102831.0;;;6.83;58.72
48892;BME280;50130;52.150;5.236;2023-04-04T08:30:13;102831.0;;;6.92;57.86
48892;BME280;50130;52.150;5.236;2023-04-04T08:31:50;102826.0;;;7.22;58.51
48892;BME280;50130;52.150;5.236;2023-04-04T08:33:26;102820.0;;;7.12;59.54
48892;BME280;50130;52.150;5.236;2023-04-04T08:35:02;102819.0;;;7.29;56.3
48892;BME280;50130;52.150;5.236;2023-04-04T08:38:14;102823.0;;;7.43;54.79
48892;BME280;50130;52.150;5.236;2023-04-04T08:39:50;102821.0;;;7.51;56.1
48892;BME280;50130;52.150;5.236;2023-04-04T08:41:26;102823.0;;;7.49;53.21
48892;BME280;50130;52.150;5.236;2023-04-04T08:44:40;102819.0;;;7.61;51.14
48892;BME280;50130;52.150;5.236;2023-04-04T08:46:20;102819.0;;;7.89;54.23
48892;BME280;50130;52.150;5.236;2023-04-04T08:47:57;102819.0;;;8.18;54.11
48892;BME280;50130;52.150;5.236;2023-04-04T08:51:14;102821.0;;;8.09;48.82
48892;BME280;50130;52.150;5.236;2023-04-04T08:52:52;102819.0;;;8.42;50.07
48892;BME280;50130;52.150;5.236;2023-04-04T08:54:30;102821.0;;;8.3;53.24
48892;BME280;50130;52.150;5.236;2023-04-04T08:56:06;102823.0;;;8.52;51.5
48892;BME280;50130;52.150;5.236;2023-04-04T08:59:19;102826.0;;;8.5;50.31
48892;BME280;50130;52.150;5.236;2023-04-04T09:00:55;102826.0;;;8.56;47.17
48892;BME280;50130;52.150;5.236;2023-04-04T09:02:34;102827.0;;;8.5;49.44
48892;BME280;50130;52.150;5.236;2023-04-04T09:05:52;102829.0;;;8.56;48.14
48892;BME280;50130;52.150;5.236;2023-04-04T09:07:30;102833.0;;;8.56;47.7
48892;BME280;50130;52.150;5.236;2023-04-04T09:09:06;102833.99999999999;;;8.66;48.14
48892;BME280;50130;52.150;5.236;2023-04-04T09:10:44;102829.0;;;8.94;49.01
48892;BME280;50130;52.150;5.236;2023-04-04T09:13:57;102824.0;;;8.98;47.69
48892;BME280;50130;52.150;5.236;2023-04-04T09:15:36;102830.0;;;9.02;47.1
48892;BME280;50130;52.150;5.236;2023-04-04T09:17:13;102824.0;;;9.11;47.21
48892;BME280;50130;52.150;5.236;2023-04-04T09:20:36;102830.0;;;9.14;46.93
48892;BME280;50130;52.150;5.236;2023-04-04T09:22:14;102833.0;;;9.07;46.97
48892;BME280;50130;52.150;5.236;2023-04-04T09:23:57;102838.00000000001;;;9.38;45.86
48892;BME280;50130;52.150;5.236;2023-04-04T09:25:35;102841.00000000001;;;9.51;46.17
48892;BME280;50130;52.150;5.236;2023-04-04T09:28:51;102841.00000000001;;;9.73;46.43
48892;BME280;50130;52.150;5.236;2023-04-04T09:30:27;102836.99999999999;;;9.56;45.77
48892;BME280;50130;52.150;5.236;2023-04-04T09:32:06;102838.00000000001;;;9.49;46.88
48892;BME280;50130;52.150;5.236;2023-04-04T09:33:42;102832.0;;;9.56;47.79
48892;BME280;50130;52.150;5.236;2023-04-04T09:36:56;102834.99999999999;;;9.67;47.4
48892;BME280;50130;52.150;5.236;2023-04-04T09:38:35;102833.99999999999;;;9.69;47.34
48892;BME280;50130;52.150;5.236;2023-04-04T09:40:14;102830.0;;;9.77;45.96
48892;BME280;50130;52.150;5.236;2023-04-04T09:43:29;102833.99999999999;;;9.9;45.27
48892;BME280;50130;52.150;5.236;2023-04-04T09:45:05;102827.0;;;9.73;44.89
48892;BME280;50130;52.150;5.236;2023-04-04T09:46:43;102827.0;;;9.88;44.69
48892;BME280;50130;52.150;5.236;2023-04-04T09:48:27;102819.0;;;9.99;45.21
48892;BME280;50130;52.150;5.236;2023-04-04T09:51:47;102823.0;;;10.13;46.9
48892;BME280;50130;52.150;5.236;2023-04-04T09:53:24;102821.0;;;10.23;46.67
48892;BME280;50130;52.150;5.236;2023-04-04T09:55:00;102813.00000000001;;;10.41;47.06
48892;BME280;50130;52.150;5.236;2023-04-04T09:56:39;102821.0;;;10.43;45.4
48892;BME280;50130;52.150;5.236;2023-04-04T09:59:56;102814.00000000001;;;10.36;44.95
48892;BME280;50130;52.150;5.236;2023-04-04T10:01:33;102809.99999999999;;;10.37;43.25
48892;BME280;50130;52.150;5.236;2023-04-04T10:03:10;102809.99999999999;;;10.48;45.18
48892;BME280;50130;52.150;5.236;2023-04-04T10:06:24;102807.0;;;10.49;45.91
48892;BME280;50130;52.150;5.236;2023-04-04T10:08:12;102809.99999999999;;;10.49;45.18
48892;BME280;50130;52.150;5.236;2023-04-04T10:09:49;102808.99999999999;;;10.37;46.25
48892;BME280;50130;52.150;5.236;2023-04-04T10:11:28;102814.00000000001;;;10.41;43.48
48892;BME280;50130;52.150;5.236;2023-04-04T10:14:41;102809.99999999999;;;10.28;42.47
48892;BME280;50130;52.150;5.236;2023-04-04T10:16:17;102816.00000000001;;;10.16;44.27
48892;BME280;50130;52.150;5.236;2023-04-04T10:17:53;102808.0;;;10.29;44.01
48892;BME280;50130;52.150;5.236;2023-04-04T10:21:08;102808.99999999999;;;10.15;44.68
48892;BME280;50130;52.150;5.236;2023-04-04T10:22:45;102808.0;;;10.08;43.88
48892;BME280;50130;52.150;5.236;2023-04-04T10:24:21;102806.0;;;10.38;43.72
48892;BME280;50130;52.150;5.236;2023-04-04T10:25:57;102806.0;;;10.43;44.07
48892;BME280;50130;52.150;5.236;2023-04-04T10:29:09;102800.0;;;10.48;45.08
48892;BME280;50130;52.150;5.236;2023-04-04T10:30:49;102795.0;;;10.52;45.87
48892;BME280;50130;52.150;5.236;2023-04-04T10:32:32;102794.0;;;10.82;45.44
48892;BME280;50130;52.150;5.236;2023-04-04T10:34:27;102794.0;;;11.06;44.98
48892;BME280;50130;52.150;5.236;2023-04-04T10:37:51;102789.00000000001;;;11.18;42.9
48892;BME280;50130;52.150;5.236;2023-04-04T10:39:32;102792.0;;;11.28;43.12
48892;BME280;50130;52.150;5.236;2023-04-04T10:41:13;102784.99999999999;;;11.39;41.02
48892;BME280;50130;52.150;5.236;2023-04-04T10:42:49;102784.99999999999;;;11.36;41.55
48892;BME280;50130;52.150;5.236;2023-04-04T10:46:08;102783.99999999999;;;11.37;42.32
48892;BME280;50130;52.150;5.236;2023-04-04T10:47:49;102788.00000000001;;;11.52;41.92
48892;BME280;50130;52.150;5.236;2023-04-04T10:49:26;102783.99999999999;;;11.36;41.15
48892;BME280;50130;52.150;5.236;2023-04-04T10:51:03;102781.0;;;11.5;41.67
48892;BME280;50130;52.150;5.236;2023-04-04T10:54:19;102774.0;;;11.19;41.06